createdAt,value
2023-04-03T00:00:51.173Z,102794.63
2023-04-03T00:03:21.495Z,102791.16
2023-04-03T00:05:50.808Z,102795.31
2023-04-03T00:08:20.869Z,102796.47
2023-04-03T00:10:52.803Z,102788.81
2023-04-03T00:13:22.188Z,102799.31
2023-04-03T00:15:55.799Z,102796.13
2023-04-03T00:18:26.682Z,102798.41
2023-04-03T00:20:55.989Z,102806.75
2023-04-03T00:23:27.664Z,102803.72
2023-04-03T00:26:00.280Z,102802.00
2023-04-03T00:28:32.514Z,102804.00
2023-04-03T00:31:04.559Z,102804.69
2023-04-03T00:33:33.989Z,102809.84
2023-04-03T00:36:03.407Z,102806.81
2023-04-03T00:38:32.747Z,102807.13
2023-04-03T00:41:03.824Z,102809.97
2023-04-03T00:43:34.552Z,102813.06
2023-04-03T00:46:07.077Z,102813.72
2023-04-03T00:48:39.905Z,102814.47
2023-04-03T00:51:14.574Z,102816.88
2023-04-03T00:53:48.413Z,102816.13
2023-04-03T00:56:20.911Z,102816.22
2023-04-03T00:58:53.939Z,102813.66
2023-04-03T01:01:28.865Z,102814.38
2023-04-03T01:03:58.528Z,102822.97
2023-04-03T01:06:32.271Z,102828.06
2023-04-03T01:09:07.767Z,102827.09
2023-04-03T01:11:37.123Z,102821.28
2023-04-03T01:14:07.647Z,102820.81
2023-04-03T01:16:40.685Z,102827.34
2023-04-03T01:19:16.471Z,102820.19
2023-04-03T01:22:06.979Z,102821.09
2023-04-03T01:24:40.192Z,102818.59
2023-04-03T01:27:13.259Z,102828.75
2023-04-03T01:29:44.944Z,102820.53
2023-04-03T01:32:16.859Z,102827.53
2023-04-03T01:34:46.185Z,102821.72
2023-04-03T01:37:15.596Z,102828.81
2023-04-03T01:39:44.911Z,102835.38
2023-04-03T01:42:14.243Z,102821.22
2023-04-03T01:44:43.571Z,102825.16
2023-04-03T01:47:12.921Z,102831.38
2023-04-03T01:49:57.262Z,102830.22
2023-04-03T01:52:26.621Z,102827.78
2023-04-03T01:54:56.090Z,102833.59
2023-04-03T01:57:25.505Z,102829.44
2023-04-03T01:59:54.867Z,102835.72
2023-04-03T02:02:24.214Z,102835.41
2023-04-03T02:04:56.149Z,102836.03
2023-04-03T02:07:25.607Z,102835.63
2023-04-03T02:09:54.942Z,102837.47
2023-04-03T02:12:24.294Z,102831.78
2023-04-03T02:14:54.239Z,102836.81
2023-04-03T02:17:26.320Z,102825.06
2023-04-03T02:19:58.363Z,102829.97
2023-04-03T02:22:29.172Z,102835.03
2023-04-03T02:24:58.512Z,102826.91
2023-04-03T02:27:30.159Z,102829.34
2023-04-03T02:30:00.922Z,102835.06
2023-04-03T02:32:30.714Z,102831.75
2023-04-03T02:35:02.784Z,102833.75
2023-04-03T02:37:32.479Z,102836.41
2023-04-03T02:40:01.800Z,102834.06
2023-04-03T02:42:31.128Z,102834.34
2023-04-03T02:45:03.279Z,102835.44
2023-04-03T02:47:32.712Z,102837.25
2023-04-03T02:50:04.676Z,102835.88
2023-04-03T02:52:34.043Z,102838.00
2023-04-03T02:55:03.849Z,102839.47
2023-04-03T02:57:33.218Z,102838.63
2023-04-03T03:00:02.755Z,102843.41
2023-04-03T03:02:34.341Z,102845.09
2023-04-03T03:05:06.790Z,102845.47
2023-04-03T03:07:36.325Z,102843.97
2023-04-03T03:10:06.083Z,102835.47
2023-04-03T03:12:35.492Z,102837.31
2023-04-03T03:15:06.018Z,102838.53
2023-04-03T03:17:37.085Z,102844.84
2023-04-03T03:20:10.678Z,102835.56
2023-04-03T03:22:40.105Z,102837.78
2023-04-03T03:25:09.939Z,102849.50
2023-04-03T03:27:39.516Z,102843.22
2023-04-03T03:30:10.665Z,102840.94
2023-04-03T03:32:40.046Z,102842.19
2023-04-03T03:35:12.522Z,102847.59
2023-04-03T03:37:41.897Z,102841.28
2023-04-03T03:40:14.183Z,102843.78
2023-04-03T03:42:43.641Z,102841.19
2023-04-03T03:45:14.185Z,102834.34
2023-04-03T03:47:43.696Z,102838.22
2023-04-03T03:50:15.769Z,102845.69
2023-04-03T03:52:45.589Z,102847.50
2023-04-03T03:55:14.932Z,102838.53
2023-04-03T03:57:44.494Z,102840.50
2023-04-03T04:00:14.899Z,102841.19
2023-04-03T04:02:44.425Z,102842.41
2023-04-03T04:05:16.574Z,102838.34
2023-04-03T04:07:45.943Z,102841.13
2023-04-03T04:10:17.752Z,102845.28
2023-04-03T04:12:47.097Z,102851.00
2023-04-03T04:15:16.549Z,102851.41
2023-04-03T04:17:46.148Z,102841.94
2023-04-03T04:20:19.964Z,102848.75
2023-04-03T04:22:49.359Z,102848.53
2023-04-03T04:25:18.809Z,102856.69
2023-04-03T04:27:48.120Z,102852.59
2023-04-03T04:30:20.791Z,102856.63
2023-04-03T04:32:52.595Z,102859.28
2023-04-03T04:35:24.556Z,102868.19
2023-04-03T04:37:54.150Z,102862.81
2023-04-03T04:40:23.658Z,102868.19
2023-04-03T04:42:53.077Z,102875.38
2023-04-03T04:45:22.504Z,102873.13
2023-04-03T04:47:53.536Z,102876.09
2023-04-03T04:50:25.814Z,102877.47
2023-04-03T04:52:55.203Z,102876.69
2023-04-03T04:55:24.500Z,102885.31
2023-04-03T04:57:56.320Z,102878.91
2023-04-03T05:00:25.845Z,102882.97
2023-04-03T05:02:55.203Z,102886.06
2023-04-03T05:05:27.122Z,102895.16
2023-04-03T05:07:56.428Z,102891.22
2023-04-03T05:10:26.358Z,102896.75
2023-04-03T05:12:55.726Z,102896.75
2023-04-03T05:15:25.141Z,102895.50
2023-04-03T05:17:54.563Z,102899.44
2023-04-03T05:20:24.062Z,102902.63
2023-04-03T05:22:56.119Z,102895.16
2023-04-03T05:25:27.176Z,102896.38
2023-04-03T05:27:56.696Z,102899.13
2023-04-03T05:30:26.317Z,102903.91
2023-04-03T05:32:55.844Z,102906.41
2023-04-03T05:35:25.227Z,102897.44
2023-04-03T05:37:57.240Z,102907.28
2023-04-03T05:40:26.739Z,102908.41
2023-04-03T05:42:56.372Z,102918.22
2023-04-03T05:45:25.859Z,102911.50
2023-04-03T05:47:55.845Z,102914.03
2023-04-03T05:50:25.217Z,102924.00
2023-04-03T05:53:00.948Z,102927.69
2023-04-03T05:55:30.312Z,102923.75
2023-04-03T05:57:59.635Z,102931.78
2023-04-03T06:00:29.045Z,102930.38
2023-04-03T06:02:58.503Z,102934.84
2023-04-03T06:05:27.998Z,102936.50
2023-04-03T06:07:59.904Z,102934.69
2023-04-03T06:10:29.360Z,102928.16
2023-04-03T06:12:58.723Z,102939.91
2023-04-03T06:15:28.392Z,102942.28
2023-04-03T06:17:58.002Z,102934.16
2023-04-03T06:20:27.364Z,102936.69
2023-04-03T06:22:56.768Z,102936.28
2023-04-03T06:25:28.691Z,102939.84
2023-04-03T06:27:58.131Z,102937.09
2023-04-03T06:30:28.365Z,102943.72
2023-04-03T06:32:57.738Z,102947.59
2023-04-03T06:35:29.156Z,102945.25
2023-04-03T06:37:58.588Z,102943.63
2023-04-03T06:40:30.793Z,102943.50
2023-04-03T06:43:00.142Z,102952.59
2023-04-03T06:45:29.460Z,102948.22
2023-04-03T06:47:58.821Z,102956.19
2023-04-03T06:50:28.793Z,102959.19
2023-04-03T06:52:58.389Z,102965.31
2023-04-03T06:55:30.741Z,102965.50
2023-04-03T06:58:00.272Z,102966.25
2023-04-03T07:00:30.035Z,102963.06
2023-04-03T07:02:59.647Z,102963.91
2023-04-03T07:05:30.052Z,102970.91
2023-04-03T07:07:59.419Z,102970.91
2023-04-03T07:10:31.865Z,102970.19
2023-04-03T07:13:02.663Z,102969.66
2023-04-03T07:15:32.013Z,102974.31
2023-04-03T07:18:05.624Z,102976.50
2023-04-03T07:20:35.070Z,102975.69
2023-04-03T07:23:04.410Z,102976.69
2023-04-03T07:25:36.899Z,102979.22
2023-04-03T07:28:06.373Z,102980.97
2023-04-03T07:30:36.068Z,102992.19
2023-04-03T07:33:05.489Z,102981.97
2023-04-03T07:35:34.905Z,102985.59
2023-04-03T07:38:04.302Z,102986.06
2023-04-03T07:40:36.354Z,102994.00
2023-04-03T07:43:06.300Z,102986.41
2023-04-03T07:45:38.050Z,102989.84
2023-04-03T07:48:08.251Z,102989.53
2023-04-03T07:50:37.721Z,102986.63
2023-04-03T07:53:07.213Z,102991.78
2023-04-03T07:55:44.115Z,102988.94
2023-04-03T07:58:14.053Z,102993.84
2023-04-03T08:00:43.389Z,102991.97
2023-04-03T08:03:14.988Z,102996.81
2023-04-03T08:05:47.042Z,102996.09
2023-04-03T08:08:20.062Z,102998.84
2023-04-03T08:10:54.790Z,102988.97
2023-04-03T08:13:25.517Z,102992.97
2023-04-03T08:15:54.853Z,102994.88
2023-04-03T08:18:25.630Z,102996.66
2023-04-03T08:20:55.786Z,102992.69
2023-04-03T08:23:25.094Z,102988.50
2023-04-03T08:25:57.112Z,102989.75
2023-04-03T08:28:26.422Z,102990.03
2023-04-03T08:30:55.954Z,102987.69
2023-04-03T08:33:25.614Z,102984.25
2023-04-03T08:35:54.970Z,102993.38
2023-04-03T08:38:24.337Z,102991.84
2023-04-03T08:41:08.489Z,102987.78
2023-04-03T08:43:46.993Z,102988.81
2023-04-03T08:46:19.989Z,102992.97
2023-04-03T08:48:50.099Z,102990.19
2023-04-03T08:51:23.409Z,102977.53
2023-04-03T08:54:00.598Z,102983.06
2023-04-03T08:56:33.886Z,102985.06
2023-04-03T08:59:08.300Z,102975.31
2023-04-03T09:01:40.604Z,102979.72
2023-04-03T09:04:15.627Z,102978.03
2023-04-03T09:06:49.880Z,102971.56
2023-04-03T09:09:28.752Z,102976.47
2023-04-03T09:12:10.601Z,102972.34
2023-04-03T09:14:43.433Z,102971.78
2023-04-03T09:17:19.741Z,102973.44
2023-04-03T09:19:58.895Z,102966.88
2023-04-03T09:22:32.782Z,102969.09
2023-04-03T09:25:09.768Z,102970.41
2023-04-03T09:27:41.777Z,102973.44
2023-04-03T09:30:17.467Z,102966.28
2023-04-03T09:32:49.582Z,102960.13
2023-04-03T09:35:36.334Z,102965.31
2023-04-03T09:38:23.396Z,102962.81
2023-04-03T09:40:54.669Z,102955.16
2023-04-03T09:43:30.129Z,102952.47
2023-04-03T09:46:21.015Z,102954.78
2023-04-03T09:49:07.532Z,102951.19
2023-04-03T09:51:38.266Z,102948.31
2023-04-03T09:54:29.450Z,102942.31
2023-04-03T09:57:02.135Z,102943.78
2023-04-03T09:59:35.012Z,102948.19
2023-04-03T10:02:07.446Z,102943.13
2023-04-03T10:04:44.340Z,102941.78
2023-04-03T10:07:31.781Z,102937.09
2023-04-03T10:10:05.263Z,102932.94
2023-04-03T10:12:34.638Z,102939.13
2023-04-03T10:15:07.711Z,102926.59
2023-04-03T10:17:47.464Z,102926.09
2023-04-03T10:20:33.975Z,102926.06
2023-04-03T10:23:18.993Z,102919.03
2023-04-03T10:25:59.756Z,102926.91
2023-04-03T10:28:37.427Z,102913.19
2023-04-03T10:31:18.731Z,102909.03
2023-04-03T10:34:00.801Z,102904.34
2023-04-03T10:36:40.406Z,102901.66
2023-04-03T10:39:19.145Z,102905.00
2023-04-03T10:42:12.852Z,102906.03
2023-04-03T10:45:00.168Z,102905.63
2023-04-03T10:47:43.970Z,102899.47
2023-04-03T10:50:31.656Z,102892.72
2023-04-03T10:53:07.954Z,102899.81
2023-04-03T10:55:42.212Z,102894.91
2023-04-03T10:58:21.808Z,102891.91
2023-04-03T11:00:54.653Z,102892.56
2023-04-03T11:03:34.958Z,102885.03
2023-04-03T11:06:09.459Z,102877.84
2023-04-03T11:08:46.040Z,102881.91
2023-04-03T11:11:19.413Z,102876.41
2023-04-03T11:13:55.305Z,102865.16
2023-04-03T11:16:29.533Z,102858.63
2023-04-03T11:19:06.179Z,102861.53
2023-04-03T11:21:39.786Z,102860.84
2023-04-03T11:24:16.525Z,102857.69
2023-04-03T11:26:46.680Z,102865.41
2023-04-03T11:29:34.153Z,102862.84
2023-04-03T11:32:15.503Z,102869.88
2023-04-03T11:34:51.160Z,102864.19
2023-04-03T11:37:28.291Z,102855.50
2023-04-03T11:40:01.657Z,102849.78
2023-04-03T11:42:37.606Z,102851.81
2023-04-03T11:45:35.680Z,102849.09
2023-04-03T11:48:20.954Z,102847.75
2023-04-03T11:50:56.354Z,102847.72
2023-04-03T11:53:35.561Z,102852.63
2023-04-03T11:56:21.484Z,102849.41
2023-04-03T11:59:22.105Z,102845.53
2023-04-03T12:01:52.844Z,102849.22
2023-04-03T12:04:23.736Z,102839.53
2023-04-03T12:07:23.937Z,102849.56
2023-04-03T12:10:03.195Z,102829.94
2023-04-03T12:12:39.139Z,102831.31
2023-04-03T12:15:28.476Z,102828.06
2023-04-03T12:17:59.054Z,102827.84
2023-04-03T12:20:57.598Z,102828.38
2023-04-03T12:23:32.563Z,102831.25
2023-04-03T12:26:28.254Z,102827.56
2023-04-03T12:29:04.073Z,102823.16
2023-04-03T12:31:50.003Z,102817.56
2023-04-03T12:34:37.416Z,102823.00
2023-04-03T12:37:13.076Z,102816.78
2023-04-03T12:39:58.400Z,102813.06
2023-04-03T12:42:50.147Z,102818.34
2023-04-03T12:45:23.898Z,102805.06
2023-04-03T12:47:56.164Z,102811.50
2023-04-03T12:50:27.858Z,102809.69
2023-04-03T12:53:03.304Z,102803.66
2023-04-03T12:55:36.256Z,102807.66
2023-04-03T12:58:18.871Z,102805.63
2023-04-03T13:00:48.212Z,102796.03
2023-04-03T13:03:28.365Z,102796.09
2023-04-03T13:06:02.893Z,102796.03
2023-04-03T13:08:32.671Z,102789.72
2023-04-03T13:11:06.909Z,102795.72
2023-04-03T13:13:36.727Z,102796.41
2023-04-03T13:16:14.876Z,102786.34
2023-04-03T13:18:44.236Z,102785.84
2023-04-03T13:21:18.933Z,102783.56
2023-04-03T13:23:55.190Z,102785.38
2023-04-03T13:26:32.834Z,102779.09
2023-04-03T13:29:05.377Z,102783.09
2023-04-03T13:31:36.552Z,102783.56
2023-04-03T13:34:11.953Z,102779.72
2023-04-03T13:36:43.775Z,102781.75
2023-04-03T13:39:27.941Z,102781.53
2023-04-03T13:42:02.730Z,102779.50
2023-04-03T13:44:36.982Z,102782.00
2023-04-03T13:47:20.787Z,102767.50
2023-04-03T13:50:04.283Z,102769.31
2023-04-03T13:52:38.840Z,102772.63
2023-04-03T13:55:25.356Z,102765.09
2023-04-03T13:58:00.962Z,102764.84
2023-04-03T14:00:51.647Z,102769.38
2023-04-03T14:03:24.241Z,102759.47
2023-04-03T14:05:54.565Z,102764.78
2023-04-03T14:08:39.529Z,102757.28
2023-04-03T14:11:17.328Z,102761.78
2023-04-03T14:13:51.393Z,102751.91
2023-04-03T14:16:24.312Z,102759.00
2023-04-03T14:18:54.620Z,102757.69
2023-04-03T14:21:25.407Z,102753.44
2023-04-03T14:23:54.718Z,102750.38
2023-04-03T14:26:27.600Z,102757.56
2023-04-03T14:28:59.482Z,102739.94
2023-04-03T14:31:28.949Z,102746.63
2023-04-03T14:33:58.335Z,102747.78
2023-04-03T14:36:31.381Z,102741.41
2023-04-03T14:39:04.908Z,102748.72
2023-04-03T14:41:34.362Z,102744.69
2023-04-03T14:44:06.928Z,102748.75
2023-04-03T14:46:55.402Z,102745.78
2023-04-03T14:49:29.193Z,102744.66
2023-04-03T14:51:58.851Z,102743.03
2023-04-03T14:54:30.211Z,102735.31
2023-04-03T14:57:02.396Z,102732.03
2023-04-03T14:59:34.813Z,102727.34
2023-04-03T15:02:08.207Z,102724.38
2023-04-03T15:04:37.800Z,102725.44
2023-04-03T15:07:07.233Z,102733.53
2023-04-03T15:09:39.463Z,102729.50
2023-04-03T15:12:09.031Z,102733.50
2023-04-03T15:14:52.438Z,102739.41
2023-04-03T15:17:26.290Z,102733.50
2023-04-03T15:19:55.697Z,102742.84
2023-04-03T15:22:25.106Z,102735.84
2023-04-03T15:24:54.488Z,102732.31
2023-04-03T15:27:23.873Z,102733.66
2023-04-03T15:29:55.792Z,102735.47
2023-04-03T15:32:25.167Z,102738.63
2023-04-03T15:34:56.120Z,102728.28
2023-04-03T15:37:26.210Z,102727.31
2023-04-03T15:39:55.582Z,102724.84
2023-04-03T15:42:24.927Z,102732.63
2023-04-03T15:44:56.869Z,102728.97
2023-04-03T15:47:26.431Z,102727.78
2023-04-03T15:49:57.109Z,102739.13
2023-04-03T15:52:26.414Z,102725.13
2023-04-03T15:54:55.786Z,102723.19
2023-04-03T15:57:27.914Z,102729.19
2023-04-03T16:00:00.307Z,102730.03
2023-04-03T16:02:30.239Z,102730.94
2023-04-03T16:04:59.612Z,102727.03
2023-04-03T16:07:28.968Z,102729.22
2023-04-03T16:09:58.536Z,102726.72
2023-04-03T16:12:27.908Z,102721.56
2023-04-03T16:14:59.829Z,102720.69
2023-04-03T16:17:30.019Z,102716.59
2023-04-03T16:19:59.657Z,102719.03
2023-04-03T16:22:31.317Z,102727.06
2023-04-03T16:25:00.764Z,102725.41
2023-04-03T16:27:31.952Z,102719.97
2023-04-03T16:30:04.071Z,102725.94
2023-04-03T16:32:35.031Z,102727.78
2023-04-03T16:35:04.541Z,102729.94
2023-04-03T16:37:33.880Z,102726.13
2023-04-03T16:40:03.489Z,102725.56
2023-04-03T16:42:32.860Z,102718.97
2023-04-03T16:45:04.796Z,102717.75
2023-04-03T16:47:34.393Z,102722.44
2023-04-03T16:50:03.859Z,102717.09
2023-04-03T16:52:33.243Z,102723.16
2023-04-03T16:55:02.755Z,102725.81
2023-04-03T16:57:32.177Z,102721.31
2023-04-03T17:00:04.114Z,102724.50
2023-04-03T17:02:33.498Z,102720.19
2023-04-03T17:05:02.948Z,102733.00
2023-04-03T17:07:32.317Z,102725.84
2023-04-03T17:10:01.851Z,102727.88
2023-04-03T17:12:31.633Z,102730.50
2023-04-03T17:15:01.057Z,102725.03
2023-04-03T17:17:32.984Z,102721.34
2023-04-03T17:20:02.599Z,102730.69
2023-04-03T17:22:33.214Z,102736.19
2023-04-03T17:25:02.704Z,102731.00
2023-04-03T17:27:32.159Z,102733.19
2023-04-03T17:30:01.473Z,102732.88
2023-04-03T17:32:33.593Z,102732.22
2023-04-03T17:35:02.934Z,102731.19
2023-04-03T17:37:32.360Z,102742.06
2023-04-03T17:40:01.699Z,102739.03
2023-04-03T17:42:31.567Z,102735.53
2023-04-03T17:45:01.331Z,102740.88
2023-04-03T17:47:33.300Z,102747.41
2023-04-03T17:50:02.650Z,102742.72
2023-04-03T17:52:32.052Z,102745.56
2023-04-03T17:55:01.395Z,102748.22
2023-04-03T17:57:31.669Z,102745.72
2023-04-03T18:00:01.129Z,102749.91
2023-04-03T18:02:33.177Z,102747.41
2023-04-03T18:05:02.658Z,102756.94
2023-04-03T18:07:32.412Z,102742.56
2023-04-03T18:10:05.153Z,102734.88
2023-04-03T18:12:34.935Z,102745.56
2023-04-03T18:15:07.177Z,102741.56
2023-04-03T18:17:39.166Z,102731.38
2023-04-03T18:20:10.408Z,102745.41
2023-04-03T18:22:40.038Z,102740.56
2023-04-03T18:25:11.439Z,102744.91
2023-04-03T18:27:40.994Z,102748.75
2023-04-03T18:30:14.364Z,102747.75
2023-04-03T18:32:46.393Z,102750.41
2023-04-03T18:35:16.177Z,102749.06
2023-04-03T18:37:45.731Z,102749.22
2023-04-03T18:40:16.661Z,102753.59
2023-04-03T18:42:47.125Z,102757.25
2023-04-03T18:45:23.000Z,102753.25
2023-04-03T18:47:55.170Z,102748.94
2023-04-03T18:50:24.593Z,102749.56
2023-04-03T18:52:54.205Z,102744.06
2023-04-03T18:55:23.824Z,102747.91
2023-04-03T18:57:53.187Z,102749.41
2023-04-03T19:00:22.781Z,102751.72
2023-04-03T19:02:54.886Z,102749.56
2023-04-03T19:05:27.144Z,102753.94
2023-04-03T19:07:57.420Z,102756.56
2023-04-03T19:10:27.365Z,102753.03
2023-04-03T19:12:56.713Z,102761.25
2023-04-03T19:15:27.728Z,102758.22
2023-04-03T19:17:59.663Z,102751.38
2023-04-03T19:20:29.480Z,102753.19
2023-04-03T19:22:58.803Z,102747.50
2023-04-03T19:25:28.187Z,102752.69
2023-04-03T19:27:57.560Z,102754.16
2023-04-03T19:30:27.471Z,102751.53
2023-04-03T19:32:59.516Z,102749.34
2023-04-03T19:35:29.249Z,102753.00
2023-04-03T19:37:58.592Z,102755.16
2023-04-03T19:40:29.136Z,102756.66
2023-04-03T19:42:58.492Z,102761.16
2023-04-03T19:45:27.981Z,102742.66
2023-04-03T19:48:01.557Z,102748.16
2023-04-03T19:50:30.988Z,102746.00
2023-04-03T19:53:00.376Z,102745.31
2023-04-03T19:55:31.576Z,102744.31
2023-04-03T19:58:02.190Z,102745.97
2023-04-03T20:00:33.313Z,102741.81
2023-04-03T20:03:06.372Z,102748.19
2023-04-03T20:05:35.871Z,102744.50
2023-04-03T20:08:05.192Z,102739.28
2023-04-03T20:10:35.290Z,102738.28
2023-04-03T20:13:08.594Z,102727.63
2023-04-03T20:15:41.130Z,102729.97
2023-04-03T20:18:18.279Z,102727.44
2023-04-03T20:20:49.753Z,102723.28
2023-04-03T20:23:19.084Z,102715.41
2023-04-03T20:26:01.538Z,102721.44
2023-04-03T20:28:36.330Z,102717.81
2023-04-03T20:31:06.843Z,102717.16
2023-04-03T20:33:39.135Z,102717.16
2023-04-03T20:36:10.481Z,102713.78
2023-04-03T20:38:39.830Z,102708.97
2023-04-03T20:41:11.749Z,102705.31
2023-04-03T20:43:42.987Z,102708.97
2023-04-03T20:46:14.305Z,102710.00
2023-04-03T20:48:46.768Z,102708.00
2023-04-03T20:51:18.445Z,102701.31
2023-04-03T20:53:48.058Z,102699.81
2023-04-03T20:56:20.824Z,102698.66
2023-04-03T20:58:51.002Z,102698.31
2023-04-03T21:01:23.055Z,102698.63
2023-04-03T21:04:02.592Z,102687.78
2023-04-03T21:07:03.139Z,102700.81
2023-04-03T21:10:03.567Z,102695.47
2023-04-03T21:13:03.175Z,102700.81
2023-04-03T21:15:52.465Z,102701.13
2023-04-03T21:18:44.381Z,102707.44
2023-04-03T21:21:23.372Z,102704.13
2023-04-03T21:23:56.129Z,102704.13
2023-04-03T21:26:28.152Z,102701.94
2023-04-03T21:28:57.956Z,102700.97
2023-04-03T21:31:27.706Z,102705.63
2023-04-03T21:34:00.251Z,102698.63
2023-04-03T21:36:29.591Z,102696.44
2023-04-03T21:38:59.312Z,102708.47
2023-04-03T21:41:28.613Z,102709.63
2023-04-03T21:43:58.255Z,102698.78
2023-04-03T21:46:27.791Z,102706.13
2023-04-03T21:48:59.867Z,102709.28
2023-04-03T21:51:30.441Z,102707.88
2023-04-03T21:53:59.860Z,102710.00
2023-04-03T21:56:31.390Z,102704.06
2023-04-03T21:59:04.824Z,102710.75
2023-04-03T22:01:34.666Z,102707.78
2023-04-03T22:04:07.160Z,102702.75
2023-04-03T22:06:37.453Z,102711.44
2023-04-03T22:09:06.957Z,102699.09
2023-04-03T22:11:38.334Z,102696.94
2023-04-03T22:14:07.674Z,102704.75
2023-04-03T22:16:37.249Z,102701.41
2023-04-03T22:19:09.228Z,102695.22
2023-04-03T22:21:38.581Z,102693.06
2023-04-03T22:24:08.432Z,102697.09
2023-04-03T22:26:39.614Z,102697.56
2023-04-03T22:29:08.912Z,102695.06
2023-04-03T22:31:38.654Z,102691.25
2023-04-03T22:34:10.611Z,102688.56
2023-04-03T22:36:43.391Z,102689.09
2023-04-03T22:39:15.295Z,102681.03
2023-04-03T22:41:45.402Z,102681.53
2023-04-03T22:44:15.288Z,102677.72
2023-04-03T22:46:44.925Z,102676.56
2023-04-03T22:49:17.231Z,102676.72
2023-04-03T22:51:46.758Z,102675.88
2023-04-03T22:54:16.067Z,102687.03
2023-04-03T22:56:45.391Z,102680.66
2023-04-03T22:59:14.743Z,102679.50
2023-04-03T23:01:44.308Z,102681.13
2023-04-03T23:04:13.649Z,102686.16
2023-04-03T23:06:45.714Z,102691.59
2023-04-03T23:09:15.000Z,102690.66
2023-04-03T23:11:44.329Z,102682.72
2023-04-03T23:14:13.980Z,102689.66
2023-04-03T23:16:43.398Z,102681.72
2023-04-03T23:19:13.028Z,102680.88
2023-04-03T23:21:45.884Z,102682.81
2023-04-03T23:24:16.064Z,102682.66
2023-04-03T23:26:45.400Z,102688.50
2023-04-03T23:29:14.735Z,102686.22
2023-04-03T23:31:44.038Z,102687.72
2023-04-03T23:34:13.451Z,102688.56
2023-04-03T23:36:45.320Z,102692.09
2023-04-03T23:39:14.641Z,102689.09
2023-04-03T23:41:44.574Z,102687.41
2023-04-03T23:44:13.979Z,102686.47
2023-04-03T23:46:43.301Z,102694.28
2023-04-03T23:49:12.638Z,102691.09
2023-04-03T23:51:44.748Z,102700.47
2023-04-03T23:54:14.048Z,102696.00
2023-04-03T23:56:43.381Z,102691.59
2023-04-03T23:59:12.698Z,102694.41
